sensor_id;sensor_type;location;lat;lon;timestamp;P1;durP1;ratioP1;P2;durP2;ratioP2
40621;SDS011;26324;52.040;11.528;2023-06-26T00:01:42;5.88;;;3.80;;
40621;SDS011;26324;52.040;11.528;2023-06-26T00:04:09;4.88;;;3.65;;
40621;SDS011;26324;52.040;11.528;2023-06-26T00:06:41;5.85;;;3.72;;
40621;SDS011;26324;52.040;11.528;2023-06-26T00:09:09;4.65;;;3.35;;
40621;SDS011;26324;52.040;11.528;2023-06-26T00:11:36;5.07;;;3.70;;
40621;SDS011;26324;52.040;11.528;2023-06-26T00:14:04;5.75;;;3.30;;
40621;SDS011;26324;52.040;11.528;2023-06-26T00:16:44;4.55;;;3.50;;
40621;SDS011;26324;52.040;11.528;2023-06-26T00:19:16;5.57;;;3.50;;
40621;SDS011;26324;52.040;11.528;2023-06-26T00:21:43;4.38;;;3.10;;
40621;SDS011;26324;52.040;11.528;2023-06-26T00:24:14;4.22;;;3.08;;
40621;SDS011;26324;52.040;11.528;2023-06-26T00:26:42;4.32;;;3.00;;
40621;SDS011;26324;52.040;11.528;2023-06-26T00:29:13;4.05;;;2.75;;
40621;SDS011;26324;52.040;11.528;2023-06-26T00:31:41;5.13;;;3.38;;
40621;SDS011;26324;52.040;11.528;2023-06-26T00:34:09;4.72;;;3.25;;
40621;SDS011;26324;52.040;11.528;2023-06-26T00:36:37;4.82;;;3.50;;
40621;SDS011;26324;52.040;11.528;2023-06-26T00:39:04;4.28;;;2.92;;
40621;SDS011;26324;52.040;11.528;2023-06-26T00:41:35;10.57;;;3.00;;
40621;SDS011;26324;52.040;11.528;2023-06-26T00:44:04;6.28;;;3.30;;
40621;SDS011;26324;52.040;11.528;2023-06-26T00:46:33;4.68;;;2.97;;
40621;SDS011;26324;52.040;11.528;2023-06-26T00:49:02;4.47;;;3.38;;
40621;SDS011;26324;52.040;11.528;2023-06-26T00:51:30;4.45;;;3.15;;
40621;SDS011;26324;52.040;11.528;2023-06-26T00:53:59;3.63;;;3.03;;
40621;SDS011;26324;52.040;11.528;2023-06-26T00:56:27;3.35;;;2.67;;
40621;SDS011;26324;52.040;11.528;2023-06-26T00:58:56;4.45;;;3.13;;
40621;SDS011;26324;52.040;11.528;2023-06-26T01:01:26;4.80;;;3.55;;
40621;SDS011;26324;52.040;11.528;2023-06-26T01:03:53;4.78;;;3.53;;
40621;SDS011;26324;52.040;11.528;2023-06-26T01:06:24;9.73;;;4.13;;
40621;SDS011;26324;52.040;11.528;2023-06-26T01:08:57;5.38;;;3.45;;
40621;SDS011;26324;52.040;11.528;2023-06-26T01:11:26;7.50;;;4.07;;
40621;SDS011;26324;52.040;11.528;2023-06-26T01:16:38;6.53;;;4.07;;
40621;SDS011;26324;52.040;11.528;2023-06-26T01:19:10;7.88;;;3.67;;
40621;SDS011;26324;52.040;11.528;2023-06-26T01:21:42;5.40;;;4.20;;
40621;SDS011;26324;52.040;11.528;2023-06-26T01:24:16;7.65;;;3.80;;
40621;SDS011;26324;52.040;11.528;2023-06-26T01:26:49;5.70;;;4.15;;
40621;SDS011;26324;52.040;11.528;2023-06-26T01:29:18;6.30;;;4.18;;
40621;SDS011;26324;52.040;11.528;2023-06-26T01:31:47;6.30;;;4.07;;
40621;SDS011;26324;52.040;11.528;2023-06-26T01:34:16;5.53;;;4.05;;
40621;SDS011;26324;52.040;11.528;2023-06-26T01:36:45;5.45;;;3.75;;
40621;SDS011;26324;52.040;11.528;2023-06-26T01:39:15;5.68;;;3.80;;
40621;SDS011;26324;52.040;11.528;2023-06-26T01:41:44;6.85;;;4.13;;
40621;SDS011;26324;52.040;11.528;2023-06-26T01:44:28;8.60;;;4.95;;
40621;SDS011;26324;52.040;11.528;2023-06-26T01:46:59;7.38;;;4.32;;
40621;SDS011;26324;52.040;11.528;2023-06-26T01:55:28;6.32;;;3.70;;
40621;SDS011;26324;52.040;11.528;2023-06-26T01:58:00;6.00;;;4.22;;
40621;SDS011;26324;52.040;11.528;2023-06-26T02:00:34;6.93;;;4.32;;
40621;SDS011;26324;52.040;11.528;2023-06-26T02:03:03;5.45;;;3.65;;
40621;SDS011;26324;52.040;11.528;2023-06-26T02:05:33;6.90;;;3.70;;
40621;SDS011;26324;52.040;11.528;2023-06-26T02:08:00;6.03;;;4.20;;
40621;SDS011;26324;52.040;11.528;2023-06-26T02:10:30;7.18;;;4.32;;
40621;SDS011;26324;52.040;11.528;2023-06-26T02:12:57;6.30;;;4.15;;
40621;SDS011;26324;52.040;11.528;2023-06-26T02:15:25;5.75;;;4.00;;
40621;SDS011;26324;52.040;11.528;2023-06-26T02:17:53;6.45;;;3.65;;
40621;SDS011;26324;52.040;11.528;2023-06-26T02:20:20;6.22;;;4.05;;
40621;SDS011;26324;52.040;11.528;2023-06-26T02:22:48;7.30;;;4.60;;
40621;SDS011;26324;52.040;11.528;2023-06-26T02:25:15;6.55;;;3.80;;
40621;SDS011;26324;52.040;11.528;2023-06-26T02:27:43;6.95;;;4.50;;
40621;SDS011;26324;52.040;11.528;2023-06-26T02:30:11;7.90;;;5.03;;
40621;SDS011;26324;52.040;11.528;2023-06-26T02:32:39;6.45;;;4.28;;
40621;SDS011;26324;52.040;11.528;2023-06-26T02:35:07;7.45;;;5.78;;
40621;SDS011;26324;52.040;11.528;2023-06-26T02:37:35;6.50;;;4.30;;
40621;SDS011;26324;52.040;11.528;2023-06-26T02:40:02;5.32;;;4.47;;
40621;SDS011;26324;52.040;11.528;2023-06-26T02:42:32;7.85;;;4.57;;
40621;SDS011;26324;52.040;11.528;2023-06-26T02:45:01;7.07;;;3.97;;
40621;SDS011;26324;52.040;11.528;2023-06-26T02:47:33;5.82;;;4.35;;
40621;SDS011;26324;52.040;11.528;2023-06-26T02:50:00;8.02;;;4.05;;
40621;SDS011;26324;52.040;11.528;2023-06-26T02:52:38;7.22;;;4.63;;
40621;SDS011;26324;52.040;11.528;2023-06-26T02:55:05;7.63;;;4.55;;
40621;SDS011;26324;52.040;11.528;2023-06-26T02:57:33;5.43;;;4.15;;
40621;SDS011;26324;52.040;11.528;2023-06-26T03:00:02;7.70;;;4.00;;
40621;SDS011;26324;52.040;11.528;2023-06-26T03:02:47;6.90;;;4.28;;
40621;SDS011;26324;52.040;11.528;2023-06-26T03:05:17;7.55;;;4.43;;
40621;SDS011;26324;52.040;11.528;2023-06-26T03:07:45;6.95;;;4.75;;
40621;SDS011;26324;52.040;11.528;2023-06-26T03:10:13;6.50;;;4.43;;
40621;SDS011;26324;52.040;11.528;2023-06-26T03:12:41;5.90;;;4.25;;
40621;SDS011;26324;52.040;11.528;2023-06-26T03:15:10;5.50;;;4.20;;
40621;SDS011;26324;52.040;11.528;2023-06-26T03:17:38;7.35;;;4.28;;
40621;SDS011;26324;52.040;11.528;2023-06-26T03:20:10;6.32;;;4.15;;
40621;SDS011;26324;52.040;11.528;2023-06-26T03:22:45;7.13;;;4.25;;
40621;SDS011;26324;52.040;11.528;2023-06-26T03:25:15;6.65;;;4.43;;
40621;SDS011;26324;52.040;11.528;2023-06-26T03:27:42;7.05;;;4.10;;
40621;SDS011;26324;52.040;11.528;2023-06-26T03:30:10;9.02;;;4.43;;
40621;SDS011;26324;52.040;11.528;2023-06-26T03:32:41;6.85;;;4.07;;
40621;SDS011;26324;52.040;11.528;2023-06-26T03:35:08;7.32;;;4.57;;
40621;SDS011;26324;52.040;11.528;2023-06-26T03:37:36;7.45;;;4.05;;
40621;SDS011;26324;52.040;11.528;2023-06-26T03:42:32;8.23;;;4.18;;
40621;SDS011;26324;52.040;11.528;2023-06-26T03:44:59;7.25;;;4.50;;
40621;SDS011;26324;52.040;11.528;2023-06-26T03:47:28;7.28;;;4.22;;
40621;SDS011;26324;52.040;11.528;2023-06-26T03:49:56;6.85;;;4.50;;
40621;SDS011;26324;52.040;11.528;2023-06-26T03:52:23;7.05;;;4.38;;
40621;SDS011;26324;52.040;11.528;2023-06-26T03:54:50;7.15;;;4.60;;
40621;SDS011;26324;52.040;11.528;2023-06-26T03:57:18;7.25;;;4.78;;
40621;SDS011;26324;52.040;11.528;2023-06-26T03:59:46;7.20;;;4.82;;
40621;SDS011;26324;52.040;11.528;2023-06-26T04:02:14;7.28;;;4.35;;
40621;SDS011;26324;52.040;11.528;2023-06-26T04:04:42;6.18;;;3.65;;
40621;SDS011;26324;52.040;11.528;2023-06-26T04:07:10;7.15;;;4.25;;
40621;SDS011;26324;52.040;11.528;2023-06-26T04:09:37;5.68;;;3.65;;
40621;SDS011;26324;52.040;11.528;2023-06-26T04:12:06;7.00;;;4.35;;
40621;SDS011;26324;52.040;11.528;2023-06-26T04:14:33;7.63;;;4.25;;
40621;SDS011;26324;52.040;11.528;2023-06-26T04:17:01;6.97;;;4.10;;
40621;SDS011;26324;52.040;11.528;2023-06-26T04:19:31;8.27;;;4.30;;
40621;SDS011;26324;52.040;11.528;2023-06-26T04:21:59;6.38;;;3.97;;
40621;SDS011;26324;52.040;11.528;2023-06-26T04:24:27;6.40;;;4.00;;
40621;SDS011;26324;52.040;11.528;2023-06-26T04:26:54;7.65;;;4.55;;
40621;SDS011;26324;52.040;11.528;2023-06-26T04:29:25;6.57;;;4.63;;
40621;SDS011;26324;52.040;11.528;2023-06-26T04:31:53;6.88;;;4.80;;
40621;SDS011;26324;52.040;11.528;2023-06-26T04:34:26;6.20;;;4.40;;
40621;SDS011;26324;52.040;11.528;2023-06-26T04:36:54;7.75;;;4.40;;
40621;SDS011;26324;52.040;11.528;2023-06-26T04:39:22;6.90;;;3.92;;
40621;SDS011;26324;52.040;11.528;2023-06-26T04:41:49;10.40;;;5.25;;
40621;SDS011;26324;52.040;11.528;2023-06-26T04:44:16;8.52;;;4.38;;
40621;SDS011;26324;52.040;11.528;2023-06-26T04:46:43;6.25;;;4.55;;
40621;SDS011;26324;52.040;11.528;2023-06-26T04:49:11;7.15;;;4.78;;
40621;SDS011;26324;52.040;11.528;2023-06-26T04:51:38;7.45;;;4.72;;
40621;SDS011;26324;52.040;11.528;2023-06-26T04:54:10;7.95;;;4.60;;
40621;SDS011;26324;52.040;11.528;2023-06-26T04:56:37;7.53;;;4.93;;
40621;SDS011;26324;52.040;11.528;2023-06-26T04:59:06;6.45;;;4.28;;
40621;SDS011;26324;52.040;11.528;2023-06-26T05:01:40;7.45;;;4.18;;
40621;SDS011;26324;52.040;11.528;2023-06-26T05:04:08;6.25;;;4.40;;
40621;SDS011;26324;52.040;11.528;2023-06-26T05:06:35;8.60;;;4.47;;
40621;SDS011;26324;52.040;11.528;2023-06-26T05:09:02;7.43;;;4.75;;
40621;SDS011;26324;52.040;11.528;2023-06-26T05:11:29;6.32;;;3.55;;
40621;SDS011;26324;52.040;11.528;2023-06-26T05:13:57;6.70;;;3.95;;
40621;SDS011;26324;52.040;11.528;2023-06-26T05:16:24;7.13;;;4.10;;
40621;SDS011;26324;52.040;11.528;2023-06-26T05:18:54;7.65;;;4.05;;
40621;SDS011;26324;52.040;11.528;2023-06-26T05:21:31;6.28;;;3.50;;
40621;SDS011;26324;52.040;11.528;2023-06-26T05:24:09;5.88;;;3.80;;
40621;SDS011;26324;52.040;11.528;2023-06-26T05:26:45;5.63;;;4.07;;
40621;SDS011;26324;52.040;11.528;2023-06-26T05:29:24;6.50;;;3.75;;
40621;SDS011;26324;52.040;11.528;2023-06-26T05:32:02;7.82;;;4.13;;
40621;SDS011;26324;52.040;11.528;2023-06-26T05:34:41;7.57;;;3.65;;
40621;SDS011;26324;52.040;11.528;2023-06-26T05:37:23;6.63;;;3.90;;
40621;SDS011;26324;52.040;11.528;2023-06-26T05:40:04;7.20;;;3.75;;
40621;SDS011;26324;52.040;11.528;2023-06-26T05:42:42;5.40;;;4.20;;
40621;SDS011;26324;52.040;11.528;2023-06-26T05:45:24;5.68;;;3.80;;
40621;SDS011;26324;52.040;11.528;2023-06-26T05:48:04;4.70;;;3.10;;
40621;SDS011;26324;52.040;11.528;2023-06-26T05:50:42;6.40;;;4.00;;
40621;SDS011;26324;52.040;11.528;2023-06-26T05:53:18;4.57;;;3.50;;
40621;SDS011;26324;52.040;11.528;2023-06-26T05:55:47;6.28;;;3.60;;
40621;SDS011;26324;52.040;11.528;2023-06-26T05:58:25;5.50;;;3.38;;
40621;SDS011;26324;52.040;11.528;2023-06-26T06:01:00;4.75;;;3.30;;
40621;SDS011;26324;52.040;11.528;2023-06-26T06:03:32;7.68;;;3.70;;
40621;SDS011;26324;52.040;11.528;2023-06-26T06:06:05;7.38;;;3.45;;
40621;SDS011;26324;52.040;11.528;2023-06-26T06:08:33;5.38;;;3.22;;
40621;SDS011;26324;52.040;11.528;2023-06-26T06:11:01;4.75;;;3.38;;
40621;SDS011;26324;52.040;11.528;2023-06-26T06:13:29;5.30;;;3.47;;
40621;SDS011;26324;52.040;11.528;2023-06-26T06:15:56;5.78;;;3.40;;
40621;SDS011;26324;52.040;11.528;2023-06-26T06:18:24;4.65;;;3.35;;
40621;SDS011;26324;52.040;11.528;2023-06-26T06:20:52;5.47;;;3.67;;
40621;SDS011;26324;52.040;11.528;2023-06-26T06:23:19;7.32;;;3.53;;
40621;SDS011;26324;52.040;11.528;2023-06-26T06:25:47;4.40;;;3.28;;
40621;SDS011;26324;52.040;11.528;2023-06-26T06:28:15;6.15;;;3.50;;
40621;SDS011;26324;52.040;11.528;2023-06-26T06:30:43;7.50;;;3.55;;
40621;SDS011;26324;52.040;11.528;2023-06-26T06:33:13;4.03;;;2.92;;
40621;SDS011;26324;52.040;11.528;2023-06-26T06:35:40;5.15;;;3.70;;
40621;SDS011;26324;52.040;11.528;2023-06-26T06:38:08;5.22;;;3.22;;
40621;SDS011;26324;52.040;11.528;2023-06-26T06:40:35;4.15;;;3.00;;
40621;SDS011;26324;52.040;11.528;2023-06-26T06:43:03;4.40;;;3.25;;
40621;SDS011;26324;52.040;11.528;2023-06-26T06:45:30;5.82;;;3.38;;
40621;SDS011;26324;52.040;11.528;2023-06-26T06:47:57;4.68;;;3.50;;
40621;SDS011;26324;52.040;11.528;2023-06-26T06:50:25;4.75;;;3.60;;
40621;SDS011;26324;52.040;11.528;2023-06-26T06:52:52;7.47;;;3.95;;
40621;SDS011;26324;52.040;11.528;2023-06-26T06:55:19;5.70;;;3.35;;
40621;SDS011;26324;52.040;11.528;2023-06-26T06:57:47;6.65;;;3.63;;
40621;SDS011;26324;52.040;11.528;2023-06-26T07:00:14;6.00;;;3.92;;
40621;SDS011;26324;52.040;11.528;2023-06-26T07:02:43;4.35;;;2.88;;
40621;SDS011;26324;52.040;11.528;2023-06-26T07:05:12;6.13;;;3.67;;
40621;SDS011;26324;52.040;11.528;2023-06-26T07:07:40;5.07;;;3.72;;
40621;SDS011;26324;52.040;11.528;2023-06-26T07:10:08;5.88;;;3.65;;
40621;SDS011;26324;52.040;11.528;2023-06-26T07:12:37;5.28;;;3.20;;
40621;SDS011;26324;52.040;11.528;2023-06-26T07:15:04;4.50;;;3.33;;
40621;SDS011;26324;52.040;11.528;2023-06-26T07:17:33;6.43;;;3.17;;
40621;SDS011;26324;52.040;11.528;2023-06-26T07:20:01;5.35;;;3.92;;
40621;SDS011;26324;52.040;11.528;2023-06-26T07:22:34;4.47;;;3.17;;
40621;SDS011;26324;52.040;11.528;2023-06-26T07:25:05;5.07;;;3.47;;
40621;SDS011;26324;52.040;11.528;2023-06-26T07:27:36;4.70;;;3.60;;
40621;SDS011;26324;52.040;11.528;2023-06-26T07:30:04;4.80;;;3.70;;
40621;SDS011;26324;52.040;11.528;2023-06-26T07:35:00;4.28;;;3.20;;
40621;SDS011;26324;52.040;11.528;2023-06-26T07:37:27;6.50;;;3.55;;
40621;SDS011;26324;52.040;11.528;2023-06-26T07:39:55;4.38;;;2.90;;
40621;SDS011;26324;52.040;11.528;2023-06-26T07:42:22;5.50;;;3.45;;
40621;SDS011;26324;52.040;11.528;2023-06-26T07:44:49;3.70;;;2.90;;
40621;SDS011;26324;52.040;11.528;2023-06-26T07:47:16;5.72;;;3.00;;
40621;SDS011;26324;52.040;11.528;2023-06-26T07:49:44;6.07;;;3.28;;
40621;SDS011;26324;52.040;11.528;2023-06-26T07:52:11;4.88;;;3.30;;
40621;SDS011;26324;52.040;11.528;2023-06-26T07:54:39;5.13;;;2.88;;
40621;SDS011;26324;52.040;11.528;2023-06-26T07:57:09;4.15;;;3.10;;
40621;SDS011;26324;52.040;11.528;2023-06-26T07:59:38;4.78;;;3.60;;
40621;SDS011;26324;52.040;11.528;2023-06-26T08:02:06;5.32;;;3.58;;
40621;SDS011;26324;52.040;11.528;2023-06-26T08:04:34;5.20;;;3.45;;
40621;SDS011;26324;52.040;11.528;2023-06-26T08:07:02;5.75;;;3.72;;
40621;SDS011;26324;52.040;11.528;2023-06-26T08:09:30;4.57;;;3.58;;
40621;SDS011;26324;52.040;11.528;2023-06-26T08:11:58;5.30;;;3.65;;
40621;SDS011;26324;52.040;11.528;2023-06-26T08:14:26;4.53;;;3.70;;
40621;SDS011;26324;52.040;11.528;2023-06-26T08:16:53;4.45;;;3.35;;
40621;SDS011;26324;52.040;11.528;2023-06-26T08:19:21;5.47;;;3.38;;
40621;SDS011;26324;52.040;11.528;2023-06-26T08:21:48;5.15;;;3.88;;
40621;SDS011;26324;52.040;11.528;2023-06-26T08:24:16;9.65;;;3.70;;
40621;SDS011;26324;52.040;11.528;2023-06-26T08:26:45;4.60;;;3.55;;
40621;SDS011;26324;52.040;11.528;2023-06-26T08:29:14;4.32;;;3.60;;
40621;SDS011;26324;52.040;11.528;2023-06-26T08:31:42;5.10;;;4.35;;
40621;SDS011;26324;52.040;11.528;2023-06-26T08:34:10;6.40;;;3.70;;
40621;SDS011;26324;52.040;11.528;2023-06-26T08:36:37;5.60;;;3.75;;
40621;SDS011;26324;52.040;11.528;2023-06-26T08:39:05;7.25;;;3.88;;
40621;SDS011;26324;52.040;11.528;2023-06-26T08:41:33;4.80;;;3.35;;
40621;SDS011;26324;52.040;11.528;2023-06-26T08:44:00;7.32;;;3.88;;
40621;SDS011;26324;52.040;11.528;2023-06-26T08:46:28;6.30;;;3.83;;
40621;SDS011;26324;52.040;11.528;2023-06-26T08:48:56;6.03;;;3.85;;
40621;SDS011;26324;52.040;11.528;2023-06-26T08:51:28;6.22;;;4.43;;
40621;SDS011;26324;52.040;11.528;2023-06-26T08:54:00;4.43;;;3.80;;
40621;SDS011;26324;52.040;11.528;2023-06-26T08:56:32;4.95;;;3.22;;
40621;SDS011;26324;52.040;11.528;2023-06-26T08:59:03;4.28;;;3.58;;
40621;SDS011;26324;52.040;11.528;2023-06-26T09:01:31;5.20;;;3.47;;
40621;SDS011;26324;52.040;11.528;2023-06-26T09:03:59;4.80;;;3.47;;
40621;SDS011;26324;52.040;11.528;2023-06-26T09:06:26;5.07;;;3.92;;
40621;SDS011;26324;52.040;11.528;2023-06-26T09:08:53;5.03;;;3.80;;
40621;SDS011;26324;52.040;11.528;2023-06-26T09:13:49;4.93;;;4.00;;
40621;SDS011;26324;52.040;11.528;2023-06-26T09:16:16;5.03;;;3.45;;
40621;SDS011;26324;52.040;11.528;2023-06-26T09:18:47;7.50;;;4.22;;
40621;SDS011;26324;52.040;11.528;2023-06-26T09:21:15;5.63;;;4.57;;
40621;SDS011;26324;52.040;11.528;2023-06-26T09:23:42;5.68;;;3.58;;
40621;SDS011;26324;52.040;11.528;2023-06-26T09:26:10;5.25;;;3.33;;
40621;SDS011;26324;52.040;11.528;2023-06-26T09:28:38;6.10;;;3.92;;
40621;SDS011;26324;52.040;11.528;2023-06-26T09:31:07;4.55;;;3.58;;
40621;SDS011;26324;52.040;11.528;2023-06-26T09:33:35;5.40;;;4.10;;
40621;SDS011;26324;52.040;11.528;2023-06-26T09:36:07;5.00;;;3.70;;
40621;SDS011;26324;52.040;11.528;2023-06-26T09:38:37;4.72;;;3.70;;
40621;SDS011;26324;52.040;11.528;2023-06-26T09:41:05;4.80;;;4.07;;
40621;SDS011;26324;52.040;11.528;2023-06-26T09:43:32;5.18;;;4.22;;
40621;SDS011;26324;52.040;11.528;2023-06-26T09:46:03;4.80;;;3.63;;
40621;SDS011;26324;52.040;11.528;2023-06-26T09:48:30;4.95;;;4.18;;
40621;SDS011;26324;52.040;11.528;2023-06-26T09:50:57;4.45;;;3.85;;
40621;SDS011;26324;52.040;11.528;2023-06-26T09:53:39;6.38;;;3.80;;
40621;SDS011;26324;52.040;11.528;2023-06-26T09:56:15;4.80;;;3.88;;
40621;SDS011;26324;52.040;11.528;2023-06-26T09:58:44;5.47;;;4.05;;
40621;SDS011;26324;52.040;11.528;2023-06-26T10:01:12;4.63;;;4.05;;
40621;SDS011;26324;52.040;11.528;2023-06-26T10:03:40;4.90;;;4.22;;
40621;SDS011;26324;52.040;11.528;2023-06-26T10:06:09;5.22;;;4.30;;
40621;SDS011;26324;52.040;11.528;2023-06-26T10:08:38;5.40;;;4.07;;
40621;SDS011;26324;52.040;11.528;2023-06-26T10:11:07;6.03;;;3.90;;
40621;SDS011;26324;52.040;11.528;2023-06-26T10:13:38;4.70;;;3.60;;
40621;SDS011;26324;52.040;11.528;2023-06-26T10:16:09;5.20;;;4.38;;
40621;SDS011;26324;52.040;11.528;2023-06-26T10:18:38;5.30;;;3.92;;
40621;SDS011;26324;52.040;11.528;2023-06-26T10:21:07;4.22;;;3.83;;
40621;SDS011;26324;52.040;11.528;2023-06-26T10:23:36;4.15;;;3.75;;
40621;SDS011;26324;52.040;11.528;2023-06-26T10:26:07;4.47;;;3.65;;
40621;SDS011;26324;52.040;11.528;2023-06-26T10:28:36;5.18;;;3.70;;
40621;SDS011;26324;52.040;11.528;2023-06-26T10:31:04;4.18;;;3.78;;
40621;SDS011;26324;52.040;11.528;2023-06-26T10:33:35;4.72;;;3.97;;
40621;SDS011;26324;52.040;11.528;2023-06-26T10:36:17;5.72;;;4.65;;
40621;SDS011;26324;52.040;11.528;2023-06-26T10:38:53;5.40;;;3.83;;
40621;SDS011;26324;52.040;11.528;2023-06-26T10:41:23;5.53;;;3.78;;
40621;SDS011;26324;52.040;11.528;2023-06-26T10:46:48;4.85;;;3.88;;
40621;SDS011;26324;52.040;11.528;2023-06-26T10:49:16;6.22;;;3.92;;
40621;SDS011;26324;52.040;11.528;2023-06-26T10:51:48;4.82;;;4.05;;
40621;SDS011;26324;52.040;11.528;2023-06-26T10:54:17;4.75;;;3.78;;
40621;SDS011;26324;52.040;11.528;2023-06-26T10:56:49;4.32;;;3.78;;
40621;SDS011;26324;52.040;11.528;2023-06-26T10:59:21;5.25;;;3.95;;
40621;SDS011;26324;52.040;11.528;2023-06-26T11:01:54;5.22;;;3.97;;
40621;SDS011;26324;52.040;11.528;2023-06-26T11:04:39;4.47;;;3.78;;
40621;SDS011;26324;52.040;11.528;2023-06-26T11:15:13;5.10;;;3.92;;
40621;SDS011;26324;52.040;11.528;2023-06-26T11:17:41;5.13;;;3.40;;
40621;SDS011;26324;52.040;11.528;2023-06-26T11:20:11;6.22;;;3.85;;
40621;SDS011;26324;52.040;11.528;2023-06-26T11:22:40;4.57;;;3.63;;
40621;SDS011;26324;52.040;11.528;2023-06-26T11:25:09;5.32;;;3.90;;
40621;SDS011;26324;52.040;11.528;2023-06-26T11:30:06;4.80;;;3.45;;
40621;SDS011;26324;52.040;11.528;2023-06-26T11:32:38;3.97;;;3.55;;
40621;SDS011;26324;52.040;11.528;2023-06-26T11:37:33;3.88;;;3.25;;
40621;SDS011;26324;52.040;11.528;2023-06-26T11:40:23;5.25;;;3.97;;
40621;SDS011;26324;52.040;11.528;2023-06-26T11:42:53;5.03;;;4.15;;
40621;SDS011;26324;52.040;11.528;2023-06-26T11:45:21;4.18;;;3.78;;
40621;SDS011;26324;52.040;11.528;2023-06-26T11:47:48;4.70;;;3.83;;
40621;SDS011;26324;52.040;11.528;2023-06-26T11:50:16;4.07;;;3.20;;
40621;SDS011;26324;52.040;11.528;2023-06-26T11:52:52;4.22;;;3.83;;
40621;SDS011;26324;52.040;11.528;2023-06-26T11:55:23;4.85;;;3.90;;
40621;SDS011;26324;52.040;11.528;2023-06-26T11:57:52;4.93;;;4.15;;
40621;SDS011;26324;52.040;11.528;2023-06-26T12:00:21;5.28;;;4.13;;
40621;SDS011;26324;52.040;11.528;2023-06-26T12:02:48;6.28;;;4.30;;
40621;SDS011;26324;52.040;11.528;2023-06-26T12:05:16;5.97;;;4.43;;
40621;SDS011;26324;52.040;11.528;2023-06-26T12:07:46;8.38;;;4.88;;
40621;SDS011;26324;52.040;11.528;2023-06-26T12:10:14;12.45;;;4.65;;
40621;SDS011;26324;52.040;11.528;2023-06-26T12:12:42;5.75;;;4.30;;
40621;SDS011;26324;52.040;11.528;2023-06-26T12:15:13;6.93;;;5.03;;
40621;SDS011;26324;52.040;11.528;2023-06-26T12:17:42;5.85;;;5.25;;
40621;SDS011;26324;52.040;11.528;2023-06-26T12:20:20;7.60;;;4.35;;
40621;SDS011;26324;52.040;11.528;2023-06-26T12:22:49;6.68;;;4.88;;
40621;SDS011;26324;52.040;11.528;2023-06-26T12:25:22;10.07;;;5.65;;
40621;SDS011;26324;52.040;11.528;2023-06-26T12:27:50;6.63;;;5.47;;
40621;SDS011;26324;52.040;11.528;2023-06-26T12:30:17;9.27;;;5.50;;
40621;SDS011;26324;52.040;11.528;2023-06-26T12:32:45;9.10;;;6.32;;
40621;SDS011;26324;52.040;11.528;2023-06-26T12:35:15;7.72;;;6.35;;
40621;SDS011;26324;52.040;11.528;2023-06-26T12:37:43;9.40;;;6.40;;
40621;SDS011;26324;52.040;11.528;2023-06-26T12:40:16;9.50;;;6.55;;
40621;SDS011;26324;52.040;11.528;2023-06-26T12:42:45;10.68;;;6.35;;
40621;SDS011;26324;52.040;11.528;2023-06-26T12:45:14;9.52;;;7.00;;
40621;SDS011;26324;52.040;11.528;2023-06-26T12:48:10;10.70;;;6.10;;
40621;SDS011;26324;52.040;11.528;2023-06-26T12:50:43;8.88;;;5.90;;
40621;SDS011;26324;52.040;11.528;2023-06-26T12:53:12;9.90;;;6.38;;
40621;SDS011;26324;52.040;11.528;2023-06-26T12:55:40;7.68;;;5.50;;
40621;SDS011;26324;52.040;11.528;2023-06-26T12:58:08;9.98;;;5.85;;
40621;SDS011;26324;52.040;11.528;2023-06-26T13:00:39;7.95;;;5.85;;
40621;SDS011;26324;52.040;11.528;2023-06-26T13:03:08;6.72;;;6.03;;
40621;SDS011;26324;52.040;11.528;2023-06-26T13:05:38;5.35;;;4.32;;
40621;SDS011;26324;52.040;11.528;2023-06-26T13:08:05;6.93;;;4.95;;
40621;SDS011;26324;52.040;11.528;2023-06-26T13:10:32;10.88;;;6.57;;
40621;SDS011;26324;52.040;11.528;2023-06-26T13:13:00;12.90;;;7.43;;
40621;SDS011;26324;52.040;11.528;2023-06-26T13:15:28;10.02;;;6.25;;
40621;SDS011;26324;52.040;11.528;2023-06-26T13:17:57;11.60;;;7.18;;
40621;SDS011;26324;52.040;11.528;2023-06-26T13:20:26;8.52;;;7.13;;
40621;SDS011;26324;52.040;11.528;2023-06-26T13:22:55;13.27;;;7.57;;
40621;SDS011;26324;52.040;11.528;2023-06-26T13:25:24;7.10;;;5.25;;
40621;SDS011;26324;52.040;11.528;2023-06-26T13:27:51;10.50;;;5.05;;
40621;SDS011;26324;52.040;11.528;2023-06-26T13:30:21;7.63;;;3.83;;
40621;SDS011;26324;52.040;11.528;2023-06-26T13:32:48;5.85;;;3.20;;
40621;SDS011;26324;52.040;11.528;2023-06-26T13:35:16;6.63;;;3.55;;
40621;SDS011;26324;52.040;11.528;2023-06-26T13:37:43;5.25;;;3.47;;
40621;SDS011;26324;52.040;11.528;2023-06-26T13:40:11;5.90;;;3.53;;
40621;SDS011;26324;52.040;11.528;2023-06-26T13:42:38;7.72;;;3.60;;
40621;SDS011;26324;52.040;11.528;2023-06-26T13:45:07;12.20;;;4.57;;
40621;SDS011;26324;52.040;11.528;2023-06-26T13:47:52;5.15;;;3.35;;
40621;SDS011;26324;52.040;11.528;2023-06-26T13:50:20;6.10;;;4.00;;
40621;SDS011;26324;52.040;11.528;2023-06-26T13:52:47;5.43;;;3.08;;
40621;SDS011;26324;52.040;11.528;2023-06-26T13:55:14;6.95;;;3.53;;
40621;SDS011;26324;52.040;11.528;2023-06-26T13:57:42;6.20;;;4.00;;
40621;SDS011;26324;52.040;11.528;2023-06-26T14:00:09;7.70;;;4.85;;
40621;SDS011;26324;52.040;11.528;2023-06-26T14:02:39;6.25;;;3.78;;
40621;SDS011;26324;52.040;11.528;2023-06-26T14:05:06;6.30;;;4.57;;
40621;SDS011;26324;52.040;11.528;2023-06-26T14:07:34;5.75;;;4.78;;
40621;SDS011;26324;52.040;11.528;2023-06-26T14:10:01;8.13;;;5.22;;
40621;SDS011;26324;52.040;11.528;2023-06-26T14:12:30;8.90;;;5.00;;
40621;SDS011;26324;52.040;11.528;2023-06-26T14:14:57;6.95;;;4.90;;
40621;SDS011;26324;52.040;11.528;2023-06-26T14:17:25;6.93;;;4.63;;
40621;SDS011;26324;52.040;11.528;2023-06-26T14:19:53;8.60;;;5.00;;
40621;SDS011;26324;52.040;11.528;2023-06-26T14:22:20;5.85;;;4.43;;
40621;SDS011;26324;52.040;11.528;2023-06-26T14:24:48;7.78;;;4.70;;
40621;SDS011;26324;52.040;11.528;2023-06-26T14:27:15;11.13;;;4.65;;
40621;SDS011;26324;52.040;11.528;2023-06-26T14:29:43;7.32;;;4.82;;
40621;SDS011;26324;52.040;11.528;2023-06-26T14:32:10;6.53;;;4.50;;
40621;SDS011;26324;52.040;11.528;2023-06-26T14:34:39;7.43;;;4.38;;
40621;SDS011;26324;52.040;11.528;2023-06-26T14:37:07;6.07;;;4.40;;
40621;SDS011;26324;52.040;11.528;2023-06-26T14:39:34;10.13;;;5.32;;
40621;SDS011;26324;52.040;11.528;2023-06-26T14:42:01;6.05;;;3.88;;
40621;SDS011;26324;52.040;11.528;2023-06-26T14:44:29;6.70;;;4.30;;
40621;SDS011;26324;52.040;11.528;2023-06-26T14:46:57;7.47;;;4.60;;
40621;SDS011;26324;52.040;11.528;2023-06-26T14:49:27;5.95;;;4.18;;
40621;SDS011;26324;52.040;11.528;2023-06-26T14:51:54;9.25;;;4.75;;
40621;SDS011;26324;52.040;11.528;2023-06-26T14:54:21;6.63;;;4.70;;
40621;SDS011;26324;52.040;11.528;2023-06-26T14:56:48;8.63;;;4.38;;
40621;SDS011;26324;52.040;11.528;2023-06-26T14:59:16;6.28;;;4.28;;
40621;SDS011;26324;52.040;11.528;2023-06-26T15:01:43;5.15;;;4.25;;
40621;SDS011;26324;52.040;11.528;2023-06-26T15:04:11;7.00;;;3.83;;
40621;SDS011;26324;52.040;11.528;2023-06-26T15:06:38;5.03;;;3.72;;
40621;SDS011;26324;52.040;11.528;2023-06-26T15:09:06;5.72;;;4.20;;
40621;SDS011;26324;52.040;11.528;2023-06-26T15:11:33;5.47;;;3.30;;
40621;SDS011;26324;52.040;11.528;2023-06-26T15:14:01;7.32;;;3.60;;
40621;SDS011;26324;52.040;11.528;2023-06-26T15:16:28;6.70;;;3.33;;
40621;SDS011;26324;52.040;11.528;2023-06-26T15:18:56;6.97;;;3.50;;